• Join FlightAware (Why Join?)
  • Login
  • US Flag 
06:38PM EDT


 

Airport Tracker/Info


-or-


 

Live Flight TrackerFlight Track Log ✈ UAL1579 ✈ 14-May-2013 ✈ KIAH - KDEN

Flight Track Log - Related Links

Times and Time Zones

All times are in EDT time to prevent confusion due to time zone crossing. See the UAL1579 flight status page for this flight to view local times or setup timezone preferences in your user account.

Time Position Orientation Groundspeed Altitude Reporting Facility
EDT Latitude Longitude Course Direction KTS MPH feet Rate Location/Type
05:03PM 29.9777 -95.3040 90° East 181 208 100  Level FlightAware ADS-B
05:03PM 29.9781 -95.2930 88° East 178 205 700 2,640 Climbing FlightAware ADS-B
05:03PM 29.9795 -95.2872 74° East 184 212 900 1,980 Climbing FlightAware ADS-B
05:03PM 29.9807 -95.2844 64° Northeast 184 212 1,000 1,680 Climbing FlightAware ADS-B
05:03PM 29.9823 -95.2815 58° Northeast 190 219 1,100 840 Climbing FlightAware ADS-B
05:03PM 29.9844 -95.2788 48° Northeast 195 224 1,100 720 Level FlightAware ADS-B
05:03PM 29.9877 -95.2757 39° Northeast 203 234 1,200 1,200 Climbing FlightAware ADS-B
05:04PM 29.9922 -95.2729 28° Northeast 213 245 1,300 1,320 Climbing FlightAware ADS-B
05:04PM 29.9961 -95.2714 18° North 220 253 1,400 1,500 Climbing FlightAware ADS-B
05:04PM 30.0000 -95.2705 11° North 225 259 1,500 1,500 Climbing FlightAware ADS-B
05:04PM 30.0045 -95.2703 North 228 262 1,600 1,500 Climbing FlightAware ADS-B
05:04PM 30.0093 -95.2706 357° North 236 272 1,700 1,500 Climbing FlightAware ADS-B
05:04PM 30.0130 -95.2714 349° North 238 274 1,800 2,520 Climbing FlightAware ADS-B
05:04PM 30.0130 -95.2710 90° East 2,000 3,000 Climbing FlightAware ADS-B
05:04PM 30.0237 -95.2744 345° North 240 276 2,300 2,760 Climbing FlightAware ADS-B
05:04PM 30.0322 -95.2770 345° North 240 276 2,700 3,120 Climbing FlightAware ADS-B
05:04PM 30.0450 -95.2810 345° North 244 281 3,300 2,820 Climbing FlightAware ADS-B
05:04PM 30.0513 -95.2829 345° North 247 284 3,500 1,320 Climbing FlightAware ADS-B
05:05PM 30.0650 -95.2870 345° North 259 298 3,700 780 Climbing FlightAware ADS-B
05:05PM 30.0686 -95.2882 344° North 263 303 3,700 300 Level FlightAware ADS-B
05:05PM 30.0870 -95.2930 347° North 278 320 3,800 180 Climbing FlightAware ADS-B
05:05PM 30.1073 -95.2987 346° North 281 323 3,800  Level FlightAware ADS-B
05:05PM 30.1100 -95.2990 355° North 329 379 3,800  Level FlightAware ADS-B
05:05PM 30.1246 -95.3034 345° North 281 323 3,800 720 Level FlightAware ADS-B
05:06PM 30.1309 -95.3057 342° North 285 328 4,000 1,980 Climbing FlightAware ADS-B
05:06PM 30.1300 -95.3050 146° Southeast 241 277 4,000 3,000 Level FlightAware ADS-B
05:06PM 30.1356 -95.3080 335° Northwest 283 326 4,200 3,420 Climbing FlightAware ADS-B
05:06PM 30.1400 -95.3110 329° Northwest 299 344 4,400 3,600 Climbing FlightAware ADS-B
05:06PM 30.1411 -95.3112 351° North 279 321 4,500 4,800 Climbing FlightAware ADS-B
05:06PM 30.1460 -95.3150 326° Northwest 329 379 4,800 3,420 Climbing FlightAware ADS-B
05:06PM 30.1486 -95.3166 332° Northwest 277 319 4,900 3,000 Climbing FlightAware ADS-B
05:06PM 30.1520 -95.3192 327° Northwest 277 319 5,100 3,000 Climbing FlightAware ADS-B
05:06PM 30.1590 -95.3250 324° Northwest 282 325 5,400 1,980 Climbing FlightAware ADS-B
05:06PM 30.1678 -95.3334 320° Northwest 288 331 5,600 2,100 Climbing FlightAware ADS-B
05:06PM 30.1770 -95.3420 321° Northwest 277 319 6,000 3,000 Climbing FlightAware ADS-B
05:06PM 30.1849 -95.3484 325° Northwest 296 341 6,400 3,120 Climbing FlightAware ADS-B
05:07PM 30.1980 -95.3600 323° Northwest 315 362 7,000 3,180 Climbing FlightAware ADS-B
05:07PM 30.2019 -95.3631 326° Northwest 297 342 7,200 3,480 Climbing FlightAware ADS-B
05:07PM 30.2170 -95.3760 324° Northwest 280 322 8,000 3,600 Climbing FlightAware ADS-B
05:07PM 30.2185 -95.3774 321° Northwest 296 341 8,100 3,480 Climbing FlightAware ADS-B
05:07PM 30.2352 -95.3919 323° Northwest 291 335 9,000 3,120 Climbing FlightAware ADS-B
05:07PM 30.2370 -95.3930 332° Northwest 292 336 9,000 2,760 Level FlightAware ADS-B
05:07PM 30.2516 -95.4062 322° Northwest 292 336 9,700 2,820 Climbing FlightAware ADS-B
05:07PM 30.2560 -95.4100 323° Northwest 291 335 9,900 1,800 Climbing FlightAware ADS-B
05:08PM 30.2853 -95.4355 323° Northwest 315 362 10,600 1,560 Climbing FlightAware ADS-B
05:08PM 30.2900 -95.4390 327° Northwest 304 350 10,700 960 Climbing FlightAware ADS-B
05:08PM 30.3235 -95.4683 323° Northwest 352 405 11,100 1,140 Climbing FlightAware ADS-B
05:09PM 30.3350 -95.4790 321° Northwest 339 390 11,400 2,160 Climbing FlightAware ADS-B
05:09PM 30.3642 -95.5034 324° Northwest 367 422 12,200 2,460 Climbing FlightAware ADS-B
05:09PM 30.3770 -95.5150 322° Northwest 384 442 12,600 2,220 Climbing FlightAware ADS-B
05:09PM 30.4087 -95.5420 324° Northwest 379 436 13,400 2,220 Climbing FlightAware ADS-B
05:10PM 30.4280 -95.5590 323° Northwest 408 470 14,000 2,580 Climbing FlightAware ADS-B
05:10PM 30.4517 -95.5795 323° Northwest 386 444 14,700 2,220 Climbing FlightAware ADS-B
05:10PM 30.4700 -95.5960 322° Northwest 387 445 15,100 2,220 Climbing FlightAware ADS-B
05:10PM 30.4977 -95.6196 324° Northwest 393 452 15,900 2,280 Climbing FlightAware ADS-B
05:11PM 30.5150 -95.6340 324° Northwest 424 488 16,300 2,100 Climbing FlightAware ADS-B
05:11PM 30.5278 -95.6448 324° Northwest 399 459 16,600 2,400 Climbing FlightAware ADS-B
05:11PM 30.5471 -95.6578 330° Northwest 401 461 17,100 2,220 Climbing FlightAware ADS-B
05:11PM 30.5520 -95.6610 331° Northwest 414 476 17,200 1,920 Climbing FlightAware ADS-B
05:12PM 30.5992 -95.6862 335° Northwest 411 473 18,100 1,980 Climbing FlightAware ADS-B
05:12PM 30.6030 -95.6890 328° Northwest 424 488 18,200 1,980 Climbing FlightAware ADS-B
05:12PM 30.6560 -95.7160 336° Northwest 414 476 19,200 1,980 Climbing FlightAware ADS-B
05:13PM 30.7113 -95.7460 335° Northwest 424 488 20,200 1,980 Climbing FlightAware ADS-B
05:13PM 30.7210 -95.7510 336° Northwest 438 504 20,400 2,220 Climbing FlightAware ADS-B
05:13PM 30.7682 -95.7764 335° Northwest 425 489 21,400 2,160 Climbing FlightAware ADS-B
05:13PM 30.7740 -95.7790 339° North 454 522 21,500 1,920 Climbing FlightAware ADS-B
05:14PM 30.8280 -95.8080 335° Northwest 431 496 22,500 1,860 Climbing FlightAware ADS-B
05:14PM 30.8323 -95.8108 331° Northwest 426 490 22,500 1,440 Level FlightAware ADS-B
05:14PM 30.8891 -95.8413 335° Northwest 435 501 23,300 1,380 Climbing FlightAware ADS-B
05:14PM 30.8930 -95.8430 339° North 436 502 23,300 1,320 Level FlightAware ADS-B
05:15PM 30.9454 -95.8716 335° Northwest 441 507 24,000 1,500 Climbing FlightAware ADS-B
05:15PM 30.9600 -95.8790 337° Northwest 456 525 24,200 1,800 Climbing FlightAware ADS-B
05:15PM 31.0011 -95.9015 335° Northwest 442 509 24,900 1,860 Climbing FlightAware ADS-B
05:15PM 31.0260 -95.9150 335° Northwest 439 505 25,300 1,560 Climbing FlightAware ADS-B
05:16PM 31.0576 -95.9321 335° Northwest 443 510 25,700 1,320 Climbing FlightAware ADS-B
05:16PM 31.0820 -95.9450 336° Northwest 438 504 26,000 1,140 Climbing FlightAware ADS-B
05:16PM 31.1144 -95.9627 335° Northwest 448 516 26,300 1,020 Climbing FlightAware ADS-B
05:16PM 31.1380 -95.9740 338° Northwest 430 495 26,500 1,140 Climbing FlightAware ADS-B
05:17PM 31.1771 -95.9887 342° North 459 528 26,900 1,200 Climbing FlightAware ADS-B
05:17PM 31.2000 -95.9980 341° North 456 525 27,100 960 Climbing FlightAware ADS-B
05:17PM 31.2383 -96.0124 342° North 466 536 27,400 960 Climbing FlightAware ADS-B
05:18PM 31.2740 -96.0260 342° North 456 525 27,700 960 Climbing FlightAware ADS-B
05:18PM 31.3126 -96.0411 342° North 472 543 28,000 960 Climbing FlightAware ADS-B
05:18PM 31.3370 -96.0510 341° North 477 549 28,200 1,200 Climbing FlightAware ADS-B
05:19PM 31.3954 -96.0732 342° North 475 547 28,800 1,200 Climbing FlightAware ADS-B
05:19PM 31.3990 -96.0750 337° Northwest 494 568 28,800 1,800 Level FlightAware ADS-B
05:19PM 31.4586 -96.0977 342° North 469 540 29,700 1,680 Climbing FlightAware ADS-B
05:19PM 31.4720 -96.1030 341° North 530 610 29,800 1,320 Climbing FlightAware ADS-B
05:20PM 31.5210 -96.1221 342° North 465 535 30,400 1,320 Climbing FlightAware ADS-B
05:20PM 31.5470 -96.1320 342° North 492 566 30,600 1,200 Climbing FlightAware ADS-B
05:20PM 31.5836 -96.1467 341° North 466 536 31,000 960 Climbing FlightAware ADS-B
05:20PM 31.6070 -96.1560 341° North 460 529 31,100 660 Climbing FlightAware ADS-B
05:21PM 31.6532 -96.1739 342° North 470 541 31,400 780 Climbing FlightAware ADS-B
05:21PM 31.6820 -96.1850 342° North 549 632 31,600 840 Climbing FlightAware ADS-B
05:21PM 31.7229 -96.2011 341° North 473 544 31,900 960 Climbing FlightAware ADS-B
05:21PM 31.7450 -96.2100 341° North 475 547 32,100 1,020 Climbing FlightAware ADS-B
05:22PM 31.7920 -96.2330 337° Northwest 435 501 32,500 1,020 Climbing FlightAware ADS-B
05:22PM 31.8199 -96.2523 330° Northwest 459 528 32,800 1,380 Climbing FlightAware ADS-B
05:22PM 31.8449 -96.2741 323° Northwest 450 518 33,200 1,380 Climbing FlightAware ADS-B
05:22PM 31.8560 -96.2840 323° Northwest 455 524 33,300 1,200 Climbing FlightAware ADS-B
05:23PM 31.9108 -96.3327 323° Northwest 446 513 34,000 1,140 Climbing FlightAware ADS-B
05:23PM 31.9150 -96.3360 326° Northwest 448 516 34,000  Level FlightAware ADS-B
05:23PM 31.9640 -96.3797 323° Northwest 447 514 34,000  Level FlightAware ADS-B
05:24PM 32.0230 -96.4320 323° Northwest 564 649 34,000  Level FlightAware ADS-B
05:24PM 32.0662 -96.4701 323° Northwest 446 513 34,000  Level FlightAware ADS-B
05:25PM 32.0720 -96.4750 324° Northwest 461 531 34,000 660 Level FlightAware ADS-B
05:25PM 32.1350 -96.5310 323° Northwest 443 510 34,500 780 Climbing FlightAware
05:25PM 32.1558 -96.5502 322° Northwest 442 509 34,700 840 Climbing FlightAware ADS-B
05:26PM 32.1710 -96.5640 322° Northwest 34,900 780 Climbing FlightAware ADS-B
05:27PM 32.2720 -96.6550 323° Northwest 442 509 35,700 600 Climbing FlightAware
05:27PM 32.3460 -96.7220 323° Northwest 443 510 36,000 180 Climbing FlightAware
05:28PM 32.4110 -96.7800 323° Northwest 443 510 36,000  Level FlightAware
05:29PM 32.4830 -96.8460 322° Northwest 442 509 36,000  Level FlightAware
05:29PM 32.5470 -96.9050 322° Northwest 442 509 36,000  Level FlightAware
05:30PM 32.6150 -96.9660 323° Northwest 444 511 36,000  Level FlightAware
05:31PM 32.6880 -97.0320 323° Northwest 444 511 36,000  Level FlightAware
05:32PM 32.7530 -97.0920 322° Northwest 444 511 36,000  Level FlightAware
05:32PM 32.8250 -97.1580 322° Northwest 446 513 36,000  Level FlightAware
05:33PM 32.8900 -97.2180 322° Northwest 447 514 36,000  Level FlightAware
05:34PM 32.9560 -97.2790 322° Northwest 449 517 36,000  Level FlightAware
05:34PM 33.0190 -97.3360 323° Northwest 449 517 36,000  Level FlightAware
05:35PM 33.0930 -97.4050 322° Northwest 450 518 36,000  Level FlightAware
05:36PM 33.1590 -97.4660 322° Northwest 451 519 36,000  Level FlightAware
05:36PM 33.2370 -97.5380 322° Northwest 447 514 36,000  Level FlightAware
05:37PM 33.3000 -97.5960 322° Northwest 446 513 36,000  Level FlightAware
05:38PM 33.3750 -97.6660 322° Northwest 447 514 36,000  Level FlightAware
05:39PM 33.4360 -97.7240 322° Northwest 449 517 36,000  Level FlightAware
05:39PM 33.5130 -97.7950 322° Northwest 450 518 36,000  Level FlightAware
05:40PM 33.5700 -97.8490 322° Northwest 450 518 36,000  Level FlightAware
05:41PM 33.6610 -97.9360 321° Northwest 451 519 36,000  Level FlightAware
05:42PM 33.7160 -97.9900 321° Northwest 451 519 36,000  Level FlightAware
05:42PM 33.8110 -98.0750 323° Northwest 455 524 36,000  Level FlightAware
05:43PM 33.8960 -98.1570 321° Northwest 456 525 36,000  Level FlightAware
05:44PM 33.9650 -98.2210 322° Northwest 456 525 36,000  Level FlightAware
05:45PM 34.0380 -98.2910 322° Northwest 457 526 36,000  Level FlightAware
05:45PM 34.1040 -98.3540 322° Northwest 457 526 36,000  Level FlightAware
05:46PM 34.1600 -98.4090 321° Northwest 457 526 36,000  Level FlightAware
05:47PM 34.2160 -98.4640 321° Northwest 457 526 36,000  Level FlightAware
05:47PM 34.2860 -98.5320 321° Northwest 457 526 36,000  Level FlightAware
05:48PM 34.3410 -98.5870 320° Northwest 457 526 36,000  Level FlightAware
05:49PM 34.3970 -98.6420 321° Northwest 457 526 36,000  Level FlightAware
05:49PM 34.4530 -98.6970 321° Northwest 457 526 36,000  Level FlightAware
05:50PM 34.5090 -98.7520 321° Northwest 457 526 36,000  Level FlightAware
05:51PM 34.6610 -98.8890 323° Northwest 455 524 36,000  Level FlightAware
05:52PM 34.7200 -98.9470 321° Northwest 455 524 36,000  Level FlightAware
05:52PM 34.7760 -99.0020 321° Northwest 455 524 36,000  Level FlightAware
05:53PM 34.8460 -99.0710 321° Northwest 455 524 36,000  Level FlightAware
05:54PM 34.9010 -99.1260 321° Northwest 455 524 36,000  Level FlightAware
05:54PM 34.9570 -99.1810 321° Northwest 455 524 36,000  Level FlightAware
05:55PM 35.0120 -99.2360 321° Northwest 455 524 36,000  Level FlightAware
05:56PM 35.0680 -99.2910 321° Northwest 455 524 36,000  Level FlightAware
05:57PM 35.1380 -99.3590 322° Northwest 455 524 36,000  Level FlightAware
05:57PM 35.1930 -99.4150 320° Northwest 455 524 36,000  Level FlightAware
05:58PM 35.2490 -99.4700 321° Northwest 455 524 36,000  Level FlightAware
05:59PM 35.3050 -99.5250 321° Northwest 455 524 36,000  Level FlightAware
05:59PM 35.3600 -99.5800 321° Northwest 455 524 36,000  Level FlightAware
06:00PM 35.4300 -99.6490 321° Northwest 455 524 36,000  Level FlightAware
06:01PM 35.4850 -99.7040 321° Northwest 455 524 36,000  Level FlightAware
06:02PM 35.7142 -99.9269 321° Northwest 456 525 36,000  Level Albuquerque Center
06:03PM 35.8131 -100.0269 321° Northwest 456 525 36,000  Level Albuquerque Center
06:04PM 35.9122 -100.1278 321° Northwest 457 526 36,000  Level Albuquerque Center
06:05PM 36.0131 -100.2303 321° Northwest 463 533 36,000  Level Albuquerque Center
06:06PM 36.1125 -100.3311 321° Northwest 462 532 36,000  Level Albuquerque Center
06:07PM 36.2131 -100.4344 320° Northwest 462 532 36,000  Level Albuquerque Center
06:08PM 36.3153 -100.5367 321° Northwest 467 537 36,000  Level Albuquerque Center
06:09PM 36.4153 -100.6394 320° Northwest 466 536 36,000  Level Albuquerque Center
06:10PM 36.5361 -100.7622 321° Northwest 466 536 36,000  Level Albuquerque Center
06:11PM 36.6411 -100.8742 319° Northwest 469 540 36,000  Level Kansas City Center
06:12PM 36.7525 -100.9881 321° Northwest 464 534 36,000  Level Kansas City Center
06:13PM 36.8478 -101.0886 320° Northwest 467 537 36,000  Level Kansas City Center
06:14PM 36.9611 -101.2078 320° Northwest 473 544 36,000  Level Kansas City Center
06:15PM 37.0578 -101.3092 320° Northwest 471 542 36,000  Level Kansas City Center
06:16PM 37.1708 -101.4272 320° Northwest 472 543 36,000  Level Kansas City Center
06:17PM 37.2686 -101.5311 320° Northwest 476 548 36,000  Level Kansas City Center
06:23PM 37.8254 -102.1270 320° Northwest 474 545 36,000  Level FlightAware ADS-B
06:23PM 37.8709 -102.1870 314° West 473 544 36,000  Level FlightAware ADS-B
06:24PM 37.9168 -102.2490 313° West 471 542 36,000  Level FlightAware ADS-B
06:24PM 37.9618 -102.3100 313° West 472 543 36,000  Level FlightAware ADS-B
06:25PM 38.0063 -102.3700 313° West 470 541 36,000  Level FlightAware ADS-B
06:25PM 38.0426 -102.4190 313° West 467 537 36,000  Level FlightAware ADS-B
06:25PM 38.0552 -102.4340 317° Northwest 465 535 36,000  Level FlightAware ADS-B
06:25PM 38.0788 -102.4550 325° Northwest 462 532 36,000  Level FlightAware ADS-B
06:26PM 38.0974 -102.4680 331° Northwest 460 529 36,000  Level FlightAware ADS-B
06:26PM 38.1174 -102.4780 339° North 457 526 36,000  Level FlightAware ADS-B
06:26PM 38.1547 -102.4890 347° North 452 520 36,000  Level FlightAware ADS-B
06:26PM 38.1767 -102.4910 356° North 449 517 36,000  Level FlightAware ADS-B
06:26PM 38.1892 -102.4900 North 448 516 36,000  Level FlightAware ADS-B
06:27PM 38.2260 -102.4830 North 447 514 36,000  Level FlightAware ADS-B
06:27PM 38.2439 -102.4790 10° North 448 516 36,000  Level FlightAware ADS-B
06:27PM 38.2609 -102.4790 360° North 452 520 36,000  Level FlightAware ADS-B
06:27PM 38.2768 -102.4820 352° North 458 527 36,000  Level FlightAware ADS-B
06:27PM 38.2890 -102.4880 339° North 462 532 36,000  Level FlightAware ADS-B
06:27PM 38.2977 -102.4940 332° Northwest 462 532 36,000  Level FlightAware ADS-B
06:27PM 38.3080 -102.5020 329° Northwest 465 535 36,000  Level FlightAware ADS-B
06:27PM 38.3158 -102.5100 321° Northwest 467 537 36,000  Level FlightAware ADS-B
06:27PM 38.3234 -102.5190 317° Northwest 469 540 36,000  Level FlightAware ADS-B
06:28PM 38.3556 -102.5650 312° West 469 540 36,000 -480 Level FlightAware ADS-B
06:28PM 38.4039 -102.6300 313° West 468 539 35,600 -780 Descending FlightAware ADS-B
06:29PM 38.4502 -102.6900 315° West 467 537 35,200 -900 Descending FlightAware ADS-B
06:29PM 38.4979 -102.7510 315° West 464 534 34,700 -1,020 Descending FlightAware ADS-B
06:30PM 38.5433 -102.8100 315° West 464 534 34,200 -1,020 Descending FlightAware ADS-B
06:30PM 38.5890 -102.8690 315° West 466 536 33,700 -1,020 Descending FlightAware ADS-B
06:31PM 38.6348 -102.9280 315° West 467 537 33,200 -1,020 Descending FlightAware ADS-B
06:31PM 38.6806 -102.9880 314° West 469 540 32,700 -900 Descending FlightAware ADS-B
06:32PM 38.7263 -103.0480 314° West 470 541 32,300 -900 Descending FlightAware ADS-B
06:32PM 38.7731 -103.1090 315° West 472 543 31,800 -1,140 Descending FlightAware ADS-B
06:33PM 38.8188 -103.1690 314° West 463 533 31,200 -1,680 Descending FlightAware ADS-B
06:33PM 38.8639 -103.2280 314° West 455 524 30,100 -2,280 Descending FlightAware ADS-B
06:34PM 38.9085 -103.2860 315° West 449 517 28,900 -2,400 Descending FlightAware ADS-B
06:34PM 38.9523 -103.3430 315° West 443 510 27,700 -2,280 Descending FlightAware ADS-B
06:35PM 38.9951 -103.4000 314° West 438 504 26,600 -2,220 Descending FlightAware ADS-B
06:35PM 39.0369 -103.4560 314° West 434 499 25,500 -2,340 Descending FlightAware ADS-B
06:36PM 39.0791 -103.5130 314° West 429 494 24,300 -2,280 Descending FlightAware ADS-B
06:36PM 39.1208 -103.5690 314° West 425 489 23,200 -2,220 Descending FlightAware ADS-B
06:37PM 39.1617 -103.6230 314° West 419 482 22,100 -2,220 Descending FlightAware ADS-B
06:38PM 39.2023 -103.6780 314° West 411 473 21,000 -2,220 Descending FlightAware ADS-B
06:38PM 39.2417 -103.7300 314° West 402 463 19,900 -2,100 Descending FlightAware ADS-B
06:39PM 39.2804 -103.7820 314° West 393 452 18,900 -1,980 Descending FlightAware ADS-B
06:39PM 39.3181 -103.8330 314° West 390 449 17,900 -1,500 Descending FlightAware ADS-B
06:40PM 39.3552 -103.8830 314° West 374 430 17,400 -840 Descending FlightAware ADS-B
06:40PM 39.3717 -103.9070 312° West 361 415 17,300 -660 Descending FlightAware ADS-B
06:40PM 39.3764 -103.9150 307° West 358 412 17,200 -720 Descending FlightAware ADS-B
06:40PM 39.3806 -103.9240 301° West 357 411 17,200 -600 Level FlightAware ADS-B
06:40PM 39.3837 -103.9330 294° West 355 409 17,100 -1,380 Descending FlightAware ADS-B
06:41PM 39.3984 -103.9940 287° West 352 405 16,400 -1,500 Descending FlightAware ADS-B
06:41PM 39.4127 -104.0550 287° West 352 405 15,600 -1,680 Descending FlightAware ADS-B
06:42PM 39.4272 -104.1150 287° West 350 403 14,700 -1,500 Descending FlightAware ADS-B
06:42PM 39.4411 -104.1700 288° West 340 391 14,200 -1,140 Descending FlightAware ADS-B
06:42PM 39.4555 -104.2270 288° West 329 379 13,600 -1,200 Descending FlightAware ADS-B
06:43PM 39.4590 -104.2390 291° West 326 375 13,500 -600 Descending FlightAware ADS-B
06:43PM 39.4612 -104.2450 295° West 324 373 13,500 -600 Level FlightAware ADS-B
06:43PM 39.4660 -104.2560 299° West 321 369 13,400 -960 Descending FlightAware ADS-B
06:43PM 39.4719 -104.2670 305° West 319 367 13,300 -1,320 Descending FlightAware ADS-B
06:43PM 39.4779 -104.2760 311° West 316 364 13,100 -960 Descending FlightAware ADS-B
06:43PM 39.4984 -104.2990 319° Northwest 311 358 12,900 -120 Descending FlightAware ADS-B
06:44PM 39.5315 -104.3370 318° Northwest 307 353 13,000 60 Climbing FlightAware ADS-B
06:44PM 39.5638 -104.3740 319° Northwest 309 356 13,000 -120 Level FlightAware ADS-B
06:45PM 39.5961 -104.4110 319° Northwest 307 353 12,900  Descending FlightAware ADS-B
06:45PM 39.6283 -104.4480 318° Northwest 305 351 13,000 60 Climbing FlightAware ADS-B
06:46PM 39.6599 -104.4850 318° Northwest 303 349 13,000 -120 Level FlightAware ADS-B
06:46PM 39.6919 -104.5210 319° Northwest 300 345 12,900  Descending FlightAware ADS-B
06:47PM 39.7062 -104.5370 319° Northwest 302 348 13,000 300 Climbing FlightAware ADS-B
06:47PM 39.7099 -104.5400 328° Northwest 301 346 13,000  Level FlightAware ADS-B
06:47PM 39.7188 -104.5450 337° Northwest 303 349 13,000  Level FlightAware ADS-B
06:47PM 39.7245 -104.5470 345° North 304 350 13,000  Level FlightAware ADS-B
06:47PM 39.7338 -104.5490 351° North 303 349 13,000 -240 Level FlightAware ADS-B
06:47PM 39.7636 -104.5500 359° North 297 342 12,900 -180 Descending FlightAware ADS-B
06:48PM 39.7944 -104.5520 357° North 271 312 12,900 -480 Level FlightAware ADS-B
06:48PM 39.8326 -104.5530 359° North 265 305 12,500 -900 Descending FlightAware ADS-B
06:49PM 39.8689 -104.5540 359° North 259 298 12,000 -1,080 Descending FlightAware ADS-B
06:49PM 39.8947 -104.5550 358° North 258 297 11,600 -1,080 Descending FlightAware ADS-B
06:49PM 39.9224 -104.5560 358° North 254 292 11,200 -960 Descending FlightAware ADS-B
06:50PM 39.9575 -104.5560 360° North 246 283 10,800 -900 Descending FlightAware ADS-B
06:50PM 39.9702 -104.5560 360° North 242 278 10,600 -1,200 Descending FlightAware ADS-B
06:50PM 39.9869 -104.5560 360° North 243 280 10,300 -1,320 Descending FlightAware ADS-B
06:50PM 39.9914 -104.5560 360° North 244 281 10,200 -1,200 Descending FlightAware ADS-B
06:51PM 40.0084 -104.5560 360° North 244 281 9,900 -1,020 Descending FlightAware ADS-B
06:51PM 40.0193 -104.5560 360° North 243 280 9,800 -1,200 Descending FlightAware ADS-B
06:51PM 40.0321 -104.5560 360° North 245 282 9,500 -1,500 Descending FlightAware ADS-B
06:51PM 40.0372 -104.5560 360° North 245 282 9,400 -900 Descending FlightAware ADS-B
06:51PM 40.0410 -104.5570 349° North 244 281 9,400 -600 Level FlightAware ADS-B
06:51PM 40.0492 -104.5600 344° North 241 277 9,300 -600 Descending FlightAware ADS-B
06:51PM 40.0523 -104.5620 334° Northwest 239 275 9,300 -720 Level FlightAware ADS-B
06:51PM 40.0574 -104.5670 323° Northwest 236 272 9,200 -600 Descending FlightAware ADS-B
06:52PM 40.0606 -104.5710 316° Northwest 235 270 9,200 -780 Level FlightAware ADS-B
06:52PM 40.0634 -104.5750 312° West 232 267 9,100 -1,200 Descending FlightAware ADS-B
06:52PM 40.0662 -104.5820 298° West 230 265 9,000 -600 Descending FlightAware ADS-B
06:52PM 40.0679 -104.5880 290° West 229 264 9,000 -780 Level FlightAware ADS-B
06:52PM 40.0685 -104.5930 279° West 228 262 8,900 -1,020 Descending FlightAware ADS-B
06:52PM 40.0687 -104.5980 273° West 227 261 8,900  Level FlightAware ADS-B
06:52PM 40.0688 -104.6030 271° West 227 261 8,900 -480 Level FlightAware ADS-B
06:52PM 40.0684 -104.6170 268° West 223 257 8,800 -480 Descending FlightAware ADS-B
06:52PM 40.0680 -104.6210 263° West 224 258 8,800 -900 Level FlightAware ADS-B
06:52PM 40.0672 -104.6250 255° West 224 258 8,700 -1,740 Descending FlightAware ADS-B
06:52PM 40.0658 -104.6300 250° West 225 259 8,600 -900 Descending FlightAware ADS-B
06:52PM 40.0643 -104.6330 237° Southwest 225 259 8,600 -1,020 Level FlightAware ADS-B
06:52PM 40.0623 -104.6370 237° Southwest 224 258 8,500 -900 Descending FlightAware ADS-B
06:52PM 40.0599 -104.6410 232° Southwest 222 255 8,500 -900 Level FlightAware ADS-B
06:53PM 40.0572 -104.6440 220° Southwest 222 255 8,400 -1,020 Descending FlightAware ADS-B
06:53PM 40.0543 -104.6460 208° Southwest 220 253 8,400  Level FlightAware ADS-B
06:53PM 40.0511 -104.6490 216° Southwest 218 251 8,400 -600 Level FlightAware ADS-B
06:53PM 40.0368 -104.6580 206° Southwest 208 239 8,200 -780 Descending FlightAware ADS-B
06:53PM 40.0249 -104.6660 207° Southwest 201 231 8,000 -1,260 Descending FlightAware ADS-B
06:53PM 40.0121 -104.6740 206° Southwest 202 232 7,600 -1,380 Descending FlightAware ADS-B
06:54PM 40.0019 -104.6800 204° Southwest 198 228 7,400 -1,140 Descending FlightAware ADS-B
06:54PM 39.9984 -104.6820 204° Southwest 199 229 7,300 -1,800 Descending FlightAware ADS-B
06:54PM 39.9935 -104.6850 205° Southwest 201 231 7,100 -1,680 Descending FlightAware ADS-B
06:54PM 39.9889 -104.6860 189° South 202 232 7,000 -1,200 Descending FlightAware ADS-B
06:54PM 39.9841 -104.6870 189° South 205 236 6,900 -1,380 Descending FlightAware ADS-B
06:54PM 39.9806 -104.6870 180° South 206 237 6,800 -720 Descending FlightAware ADS-B
06:54PM 39.9763 -104.6870 180° South 206 237 6,800 -900 Level FlightAware ADS-B
06:54PM 39.9677 -104.6860 175° South 199 229 6,600 -1,320 Descending FlightAware ADS-B
06:54PM 39.9624 -104.6860 180° South 193 222 6,500 -960 Descending FlightAware ADS-B
06:54PM 39.9561 -104.6860 180° South 188 216 6,400 -1,020 Descending FlightAware ADS-B
06:55PM 39.9477 -104.6860 180° South 178 205 6,200 -1,080 Descending FlightAware ADS-B
06:55PM 39.9415 -104.6860 180° South 170 196 6,100 -480 Descending FlightAware ADS-B
06:55PM 39.9368 -104.6860 180° South 165 190 6,100 -780 Level FlightAware ADS-B
06:55PM 39.9294 -104.6860 180° South 161 185 5,900 -960 Descending FlightAware ADS-B
06:55PM 39.9183 -104.6870 184° South 155 178 5,700 -660 Descending FlightAware ADS-B
06:55PM 39.9098 -104.6870 180° South 153 176 5,600 -600 Descending FlightAware ADS-B
06:56PM 39.9041 -104.6870 180° South 147 169 5,500 -1,020 Descending FlightAware ADS-B
06:56PM 39.8971 -104.6870 180° South 146 168 5,300 -1,200 Descending FlightAware ADS-B